createdAt,value
2023-04-20T00:00:44.157Z,102005.47
2023-04-20T00:03:29.493Z,101983.66
2023-04-20T00:06:15.482Z,102007.59
2023-04-20T00:09:01.806Z,101985.38
2023-04-20T00:11:46.831Z,101970.00
2023-04-20T00:14:32.021Z,101971.69
2023-04-20T00:17:17.820Z,102001.47
2023-04-20T00:20:03.743Z,101998.94
2023-04-20T00:22:48.778Z,101989.47
2023-04-20T00:25:37.112Z,101985.00
2023-04-20T00:28:22.282Z,101991.94
2023-04-20T00:31:07.358Z,101985.94
2023-04-20T00:33:52.386Z,101982.41
2023-04-20T00:36:37.302Z,101990.22
2023-04-20T00:39:22.683Z,101980.66
2023-04-20T00:42:08.998Z,101982.59
2023-04-20T00:44:54.535Z,101982.47
2023-04-20T00:47:39.881Z,101977.41
2023-04-20T00:50:24.936Z,101973.13
2023-04-20T00:53:11.301Z,101965.56
2023-04-20T00:55:56.668Z,101970.44
2023-04-20T00:58:43.664Z,101971.59
2023-04-20T01:01:29.110Z,101970.94
2023-04-20T01:04:14.437Z,101970.25
2023-04-20T01:06:59.691Z,101968.69
2023-04-20T01:09:44.650Z,101961.63
2023-04-20T01:12:29.822Z,101962.44
2023-04-20T01:15:14.853Z,101955.00
2023-04-20T01:18:00.202Z,101956.19
2023-04-20T01:20:47.133Z,101946.59
2023-04-20T01:23:35.033Z,101951.97
2023-04-20T01:26:20.934Z,101940.94
2023-04-20T01:29:06.014Z,101935.19
2023-04-20T01:31:51.614Z,101933.50
2023-04-20T01:34:37.492Z,101911.25
2023-04-20T01:37:22.491Z,101928.28
2023-04-20T01:40:12.884Z,101923.22
2023-04-20T01:42:57.969Z,101921.69
2023-04-20T01:45:43.317Z,101922.91
2023-04-20T01:48:28.662Z,101909.44
2023-04-20T01:51:13.957Z,101924.66
2023-04-20T01:53:59.824Z,101905.69
2023-04-20T01:56:45.122Z,101901.59
2023-04-20T01:59:30.068Z,101924.13
2023-04-20T02:02:15.402Z,101919.22
2023-04-20T02:05:01.038Z,101913.94
2023-04-20T02:07:46.129Z,101921.78
2023-04-20T02:10:31.247Z,101918.13
2023-04-20T02:13:16.522Z,101923.97
2023-04-20T02:16:01.896Z,101922.03
2023-04-20T02:18:47.300Z,101917.81
2023-04-20T02:21:32.623Z,101917.19
2023-04-20T02:24:17.892Z,101923.28
2023-04-20T02:27:03.525Z,101918.91
2023-04-20T02:29:49.038Z,101919.81
2023-04-20T02:32:35.163Z,101912.13
2023-04-20T02:35:20.770Z,101919.72
2023-04-20T02:38:06.076Z,101917.09
2023-04-20T02:40:51.283Z,101906.91
2023-04-20T02:43:36.579Z,101916.63
2023-04-20T02:46:21.724Z,101901.91
2023-04-20T02:49:07.154Z,101898.69
2023-04-20T02:51:52.055Z,101909.72
2023-04-20T02:54:36.945Z,101903.81
2023-04-20T02:57:22.205Z,101906.34
2023-04-20T03:00:08.910Z,101903.13
2023-04-20T03:02:54.484Z,101899.94
2023-04-20T03:05:40.225Z,101897.94
2023-04-20T03:08:25.637Z,101907.66
2023-04-20T03:11:10.878Z,101906.03
2023-04-20T03:13:55.841Z,101894.03
2023-04-20T03:16:41.553Z,101912.19
2023-04-20T03:19:26.823Z,101900.31
2023-04-20T03:22:12.036Z,101909.94
2023-04-20T03:24:57.118Z,101904.09
2023-04-20T03:27:42.239Z,101905.13
2023-04-20T03:30:27.429Z,101906.13
2023-04-20T03:33:12.628Z,101904.53
2023-04-20T03:35:57.792Z,101893.59
2023-04-20T03:38:43.162Z,101905.50
2023-04-20T03:41:28.166Z,101911.47
2023-04-20T03:44:14.087Z,101912.47
2023-04-20T03:46:59.050Z,101898.88
2023-04-20T03:49:44.188Z,101922.22
2023-04-20T03:52:29.655Z,101920.56
2023-04-20T03:55:14.674Z,101928.31
2023-04-20T03:57:59.656Z,101926.44
2023-04-20T04:00:44.739Z,101923.03
2023-04-20T04:03:30.378Z,101926.44
2023-04-20T04:06:15.636Z,101922.16
2023-04-20T04:09:01.008Z,101916.22
2023-04-20T04:11:46.147Z,101906.91
2023-04-20T04:14:32.585Z,101908.41
2023-04-20T04:17:18.015Z,101913.75
2023-04-20T04:20:03.501Z,101921.34
2023-04-20T04:22:48.705Z,101911.09
2023-04-20T04:25:33.782Z,101908.63
2023-04-20T04:28:19.209Z,101916.28
2023-04-20T04:31:06.052Z,101930.94
2023-04-20T04:33:51.507Z,101915.63
2023-04-20T04:36:36.741Z,101926.78
2023-04-20T04:39:21.822Z,101910.50
2023-04-20T04:42:06.917Z,101916.56
2023-04-20T04:44:53.673Z,101931.97
2023-04-20T04:47:41.135Z,101935.41
2023-04-20T04:50:26.346Z,101924.88
2023-04-20T04:53:11.225Z,101926.63
2023-04-20T04:55:56.368Z,101926.78
2023-04-20T04:58:41.630Z,101914.19
2023-04-20T05:01:26.496Z,101931.19
2023-04-20T05:04:11.436Z,101932.06
2023-04-20T05:06:56.873Z,101918.44
2023-04-20T05:09:41.767Z,101927.72
2023-04-20T05:12:26.670Z,101936.44
2023-04-20T05:15:12.104Z,101931.19
2023-04-20T05:17:57.790Z,101937.25
2023-04-20T05:20:43.066Z,101923.53
2023-04-20T05:23:28.254Z,101942.38
2023-04-20T05:26:16.149Z,101932.28
2023-04-20T05:29:01.692Z,101929.69
2023-04-20T05:31:46.977Z,101935.53
2023-04-20T05:34:32.090Z,101944.19
2023-04-20T05:37:17.232Z,101937.19
2023-04-20T05:40:02.444Z,101938.22
2023-04-20T05:42:47.511Z,101941.00
2023-04-20T05:45:34.372Z,101917.94
2023-04-20T05:48:19.408Z,101931.56
2023-04-20T05:51:04.523Z,101936.75
2023-04-20T05:53:49.718Z,101941.63
2023-04-20T05:56:34.725Z,101945.69
2023-04-20T05:59:20.661Z,101946.34
2023-04-20T06:02:06.236Z,101922.19
2023-04-20T06:04:51.530Z,101951.69
2023-04-20T06:07:37.470Z,101952.19
2023-04-20T06:10:22.782Z,101954.69
2023-04-20T06:13:07.968Z,101952.59
2023-04-20T06:15:54.067Z,101934.56
2023-04-20T06:18:39.534Z,101946.81
2023-04-20T06:21:25.088Z,101948.13
2023-04-20T06:24:09.948Z,101942.66
2023-04-20T06:26:54.914Z,101933.88
2023-04-20T06:29:40.171Z,101957.53
2023-04-20T06:32:25.210Z,101954.47
2023-04-20T06:35:10.551Z,101956.81
2023-04-20T06:37:57.490Z,101945.22
2023-04-20T06:40:42.580Z,101953.53
2023-04-20T06:43:27.648Z,101947.91
2023-04-20T06:46:12.899Z,101947.59
2023-04-20T06:48:59.197Z,101949.03
2023-04-20T06:51:44.445Z,101946.09
2023-04-20T06:54:29.365Z,101940.44
2023-04-20T06:57:14.359Z,101927.41
2023-04-20T06:59:59.218Z,101944.03
2023-04-20T07:02:45.857Z,101938.50
2023-04-20T07:05:31.199Z,101950.31
2023-04-20T07:08:17.032Z,101942.22
2023-04-20T07:11:02.104Z,101940.88
2023-04-20T07:13:46.947Z,101941.19
2023-04-20T07:16:32.076Z,101922.38
2023-04-20T07:19:17.725Z,101940.69
2023-04-20T07:22:03.142Z,101921.47
2023-04-20T07:24:48.308Z,101938.97
2023-04-20T07:27:38.512Z,101938.44
2023-04-20T07:30:23.311Z,101939.25
2023-04-20T07:33:09.132Z,101930.03
2023-04-20T07:35:54.360Z,101932.13
2023-04-20T07:38:39.474Z,101939.53
2023-04-20T07:41:24.465Z,101925.72
2023-04-20T07:44:09.607Z,101926.69
2023-04-20T07:46:55.540Z,101909.28
2023-04-20T07:49:41.145Z,101924.22
2023-04-20T07:52:26.545Z,101912.13
2023-04-20T07:55:12.026Z,101927.09
2023-04-20T07:57:57.861Z,101915.72
2023-04-20T08:00:42.930Z,101922.44
2023-04-20T08:03:28.987Z,101926.53
2023-04-20T08:06:14.329Z,101902.16
2023-04-20T08:08:59.292Z,101924.63
2023-04-20T08:11:46.191Z,101927.53
2023-04-20T08:14:31.653Z,101921.38
2023-04-20T08:17:16.647Z,101915.97
2023-04-20T08:20:02.300Z,101922.69
2023-04-20T08:22:47.470Z,101924.16
2023-04-20T08:25:32.612Z,101916.63
2023-04-20T08:28:32.456Z,101914.19
2023-04-20T08:31:18.913Z,101890.47
2023-04-20T08:34:04.101Z,101889.19
2023-04-20T08:36:49.318Z,101892.56
2023-04-20T08:39:34.769Z,101889.84
2023-04-20T08:42:20.077Z,101894.88
2023-04-20T08:45:05.734Z,101874.06
2023-04-20T08:47:51.115Z,101880.66
2023-04-20T08:50:37.416Z,101888.06
2023-04-20T08:53:22.764Z,101882.81
2023-04-20T08:56:08.229Z,101869.72
2023-04-20T08:58:53.476Z,101863.69
2023-04-20T09:01:39.534Z,101866.75
2023-04-20T09:04:29.473Z,101879.59
2023-04-20T09:07:21.595Z,101871.25
2023-04-20T09:10:07.064Z,101856.38
2023-04-20T09:12:53.331Z,101859.44
2023-04-20T09:15:38.497Z,101859.25
2023-04-20T09:18:24.844Z,101855.78
2023-04-20T09:21:10.475Z,101856.38
2023-04-20T09:24:03.403Z,101847.75
2023-04-20T09:26:48.639Z,101854.66
2023-04-20T09:29:33.595Z,101857.88
2023-04-20T09:32:26.112Z,101847.88
2023-04-20T09:35:11.053Z,101851.47
2023-04-20T09:37:56.429Z,101852.53
2023-04-20T09:40:41.679Z,101842.94
2023-04-20T09:43:28.175Z,101854.31
2023-04-20T09:46:13.391Z,101845.41
2023-04-20T09:49:03.515Z,101830.09
2023-04-20T09:51:49.086Z,101832.44
2023-04-20T09:54:36.874Z,101829.31
2023-04-20T09:57:22.995Z,101793.88
2023-04-20T10:00:12.462Z,101800.84
2023-04-20T10:02:58.029Z,101803.22
2023-04-20T10:05:43.211Z,101793.84
2023-04-20T10:08:28.589Z,101796.38
2023-04-20T10:11:48.935Z,101785.59
2023-04-20T10:14:37.301Z,101783.63
2023-04-20T10:17:30.604Z,101772.06
2023-04-20T10:20:28.105Z,101764.69
2023-04-20T10:23:18.385Z,101756.44
2023-04-20T10:26:03.882Z,101778.41
2023-04-20T10:28:49.360Z,101758.03
2023-04-20T10:31:42.081Z,101764.91
2023-04-20T10:34:35.355Z,101765.94
2023-04-20T10:37:20.679Z,101762.41
2023-04-20T10:40:08.095Z,101754.28
2023-04-20T10:42:53.645Z,101752.50
2023-04-20T10:45:40.167Z,101747.03
2023-04-20T10:48:25.492Z,101744.88
2023-04-20T10:51:10.812Z,101737.09
2023-04-20T10:54:07.972Z,101740.03
2023-04-20T10:56:54.535Z,101742.66
2023-04-20T10:59:41.417Z,101742.38
2023-04-20T11:02:28.244Z,101716.81
2023-04-20T11:05:14.002Z,101732.13
2023-04-20T11:08:01.192Z,101722.78
2023-04-20T11:10:46.594Z,101719.06
2023-04-20T11:13:32.886Z,101729.81
2023-04-20T11:16:19.477Z,101705.94
2023-04-20T11:19:05.833Z,101717.31
2023-04-20T11:21:51.294Z,101715.94
2023-04-20T11:24:37.465Z,101719.06
2023-04-20T11:27:22.713Z,101688.94
2023-04-20T11:30:09.809Z,101693.63
2023-04-20T11:32:55.265Z,101691.94
2023-04-20T11:35:42.285Z,101677.91
2023-04-20T11:38:32.235Z,101660.84
2023-04-20T11:41:17.825Z,101674.91
2023-04-20T11:44:02.821Z,101661.22
2023-04-20T11:46:53.253Z,101663.66
2023-04-20T11:49:38.926Z,101650.97
2023-04-20T11:52:24.142Z,101645.88
2023-04-20T11:55:09.690Z,101647.28
2023-04-20T11:57:54.578Z,101634.06
2023-04-20T12:00:39.518Z,101624.16
2023-04-20T12:03:24.817Z,101626.94
2023-04-20T12:06:10.360Z,101622.69
2023-04-20T12:08:56.421Z,101611.44
2023-04-20T12:11:41.400Z,101619.94
2023-04-20T12:14:27.195Z,101607.97
2023-04-20T12:17:12.710Z,101603.50
2023-04-20T12:19:58.001Z,101603.38
2023-04-20T12:22:43.398Z,101593.59
2023-04-20T12:25:28.512Z,101606.44
2023-04-20T12:28:14.307Z,101599.19
2023-04-20T12:30:59.514Z,101601.59
2023-04-20T12:33:44.900Z,101598.09
2023-04-20T12:36:30.409Z,101567.09
2023-04-20T12:39:16.000Z,101590.63
2023-04-20T12:42:02.363Z,101585.72
2023-04-20T12:44:47.360Z,101571.53
2023-04-20T12:47:32.371Z,101577.91
2023-04-20T12:50:17.638Z,101572.03
2023-04-20T12:53:02.933Z,101573.09
2023-04-20T12:55:49.535Z,101577.03
2023-04-20T12:58:38.434Z,101577.97
2023-04-20T13:01:23.340Z,101566.06
2023-04-20T13:04:09.116Z,101578.97
2023-04-20T13:06:54.205Z,101571.16
2023-04-20T13:09:39.387Z,101568.19
2023-04-20T13:12:24.662Z,101569.41
2023-04-20T13:15:09.945Z,101569.16
2023-04-20T13:17:55.312Z,101569.78
2023-04-20T13:20:40.724Z,101564.78
2023-04-20T13:23:26.081Z,101541.31
2023-04-20T13:26:11.565Z,101535.25
2023-04-20T13:28:58.352Z,101538.69
2023-04-20T13:31:43.626Z,101542.59
2023-04-20T13:34:28.848Z,101525.72
2023-04-20T13:37:14.115Z,101521.94
2023-04-20T13:40:00.100Z,101514.41
2023-04-20T13:42:45.188Z,101514.84
2023-04-20T13:45:30.684Z,101502.41
2023-04-20T13:48:16.104Z,101499.03
2023-04-20T13:51:01.351Z,101501.97
2023-04-20T13:53:48.420Z,101491.81
2023-04-20T13:56:34.455Z,101472.81
2023-04-20T13:59:19.726Z,101481.63
2023-04-20T14:02:04.742Z,101490.16
2023-04-20T14:04:50.020Z,101497.38
2023-04-20T14:07:35.578Z,101470.44
2023-04-20T14:10:20.876Z,101464.59
2023-04-20T14:13:07.136Z,101470.06
2023-04-20T14:15:53.984Z,101455.84
2023-04-20T14:18:39.342Z,101453.09
2023-04-20T14:21:24.694Z,101459.53
2023-04-20T14:24:13.784Z,101452.59
2023-04-20T14:26:59.869Z,101451.88
2023-04-20T14:29:45.235Z,101458.81
2023-04-20T14:32:31.331Z,101450.97
2023-04-20T14:35:16.806Z,101455.38
2023-04-20T14:38:02.077Z,101458.72
2023-04-20T14:40:48.308Z,101459.44
2023-04-20T14:43:34.495Z,101456.13
2023-04-20T14:46:19.770Z,101446.59
2023-04-20T14:49:05.379Z,101461.03
2023-04-20T14:51:50.973Z,101476.84
2023-04-20T14:54:36.058Z,101467.16
2023-04-20T14:57:21.704Z,101475.06
2023-04-20T15:00:07.393Z,101465.88
2023-04-20T15:02:53.499Z,101473.47
2023-04-20T15:05:39.685Z,101461.84
2023-04-20T15:08:25.020Z,101480.63
2023-04-20T15:11:10.179Z,101471.19
2023-04-20T15:13:55.479Z,101475.13
2023-04-20T15:16:40.892Z,101477.16
2023-04-20T15:19:26.214Z,101462.66
2023-04-20T15:22:14.712Z,101479.44
2023-04-20T15:24:59.749Z,101481.41
2023-04-20T15:27:44.701Z,101477.66
2023-04-20T15:30:30.646Z,101481.47
2023-04-20T15:33:15.960Z,101472.75
2023-04-20T15:36:00.869Z,101476.13
2023-04-20T15:38:46.287Z,101485.63
2023-04-20T15:41:31.178Z,101482.56
2023-04-20T15:44:17.062Z,101475.56
2023-04-20T15:47:03.378Z,101466.78
2023-04-20T15:49:48.181Z,101461.31
2023-04-20T15:52:33.431Z,101471.84
2023-04-20T15:55:18.614Z,101472.97
2023-04-20T15:58:03.791Z,101472.69
2023-04-20T16:00:48.684Z,101486.53
2023-04-20T16:03:33.861Z,101482.84
2023-04-20T16:06:19.228Z,101485.75
2023-04-20T16:09:04.342Z,101467.59
2023-04-20T16:11:49.679Z,101473.16
2023-04-20T16:14:34.920Z,101470.56
2023-04-20T16:17:20.027Z,101487.03
2023-04-20T16:20:06.021Z,101477.41
2023-04-20T16:22:51.365Z,101483.47
2023-04-20T16:25:38.334Z,101489.00
2023-04-20T16:28:23.625Z,101466.00
2023-04-20T16:31:08.634Z,101478.03
2023-04-20T16:33:54.052Z,101483.63
2023-04-20T16:36:39.048Z,101488.47
2023-04-20T16:39:23.959Z,101491.31
2023-04-20T16:42:09.214Z,101486.88
2023-04-20T16:44:55.688Z,101477.88
2023-04-20T16:47:40.771Z,101486.88
2023-04-20T16:50:26.137Z,101469.50
2023-04-20T16:53:11.414Z,101472.94
2023-04-20T16:55:56.548Z,101482.03
2023-04-20T16:58:41.946Z,101460.50
2023-04-20T17:01:27.410Z,101475.56
2023-04-20T17:04:13.400Z,101463.72
2023-04-20T17:06:58.549Z,101469.72
2023-04-20T17:09:43.565Z,101461.91
2023-04-20T17:12:29.310Z,101451.13
2023-04-20T17:15:14.582Z,101451.28
2023-04-20T17:17:59.707Z,101470.97
2023-04-20T17:20:45.988Z,101459.81
2023-04-20T17:23:34.108Z,101435.44
2023-04-20T17:26:19.106Z,101452.66
2023-04-20T17:29:04.724Z,101456.25
2023-04-20T17:31:50.249Z,101435.72
2023-04-20T17:34:35.861Z,101437.91
2023-04-20T17:37:22.217Z,101439.06
2023-04-20T17:40:08.388Z,101438.06
2023-04-20T17:42:53.248Z,101451.56
2023-04-20T17:45:38.300Z,101448.91
2023-04-20T17:48:23.255Z,101452.19
2023-04-20T17:51:08.524Z,101440.66
2023-04-20T17:53:53.520Z,101455.34
2023-04-20T17:56:38.447Z,101453.59
2023-04-20T17:59:23.429Z,101458.03
2023-04-20T18:02:09.232Z,101450.19
2023-04-20T18:04:57.489Z,101455.56
2023-04-20T18:07:42.781Z,101448.13
2023-04-20T18:10:28.022Z,101457.72
2023-04-20T18:13:13.267Z,101455.13
2023-04-20T18:15:59.683Z,101447.34
2023-04-20T18:18:44.779Z,101445.03
2023-04-20T18:21:30.153Z,101461.88
2023-04-20T18:24:15.368Z,101462.94
2023-04-20T18:27:01.239Z,101458.63
2023-04-20T18:29:46.405Z,101460.81
2023-04-20T18:32:32.910Z,101452.72
2023-04-20T18:35:19.331Z,101457.41
2023-04-20T18:38:05.933Z,101462.88
2023-04-20T18:40:51.136Z,101452.50
2023-04-20T18:43:36.088Z,101461.13
2023-04-20T18:46:20.923Z,101467.19
2023-04-20T18:49:06.238Z,101452.88
2023-04-20T18:51:51.465Z,101470.63
2023-04-20T18:54:38.317Z,101476.22
2023-04-20T18:57:26.193Z,101460.09
2023-04-20T19:00:11.752Z,101466.13
2023-04-20T19:02:57.221Z,101473.94
2023-04-20T19:05:42.232Z,101463.50
2023-04-20T19:08:27.550Z,101467.75
2023-04-20T19:11:12.520Z,101473.56
2023-04-20T19:13:57.455Z,101436.13
2023-04-20T19:16:42.730Z,101453.66
2023-04-20T19:19:28.169Z,101448.63
2023-04-20T19:22:13.280Z,101457.31
2023-04-20T19:24:58.495Z,101444.13
2023-04-20T19:27:43.760Z,101460.72
2023-04-20T19:30:29.244Z,101461.78
2023-04-20T19:33:14.538Z,101452.09
2023-04-20T19:36:00.659Z,101450.44
2023-04-20T19:38:45.793Z,101440.25
2023-04-20T19:41:30.975Z,101437.94
2023-04-20T19:44:16.306Z,101434.91
2023-04-20T19:47:01.579Z,101442.53
2023-04-20T19:49:46.769Z,101423.25
2023-04-20T19:52:34.268Z,101432.81
2023-04-20T19:55:19.266Z,101443.03
2023-04-20T19:58:09.130Z,101442.41
2023-04-20T20:00:54.412Z,101449.53
2023-04-20T20:03:40.165Z,101446.25
2023-04-20T20:06:26.881Z,101443.63
2023-04-20T20:09:12.104Z,101413.81
2023-04-20T20:11:57.467Z,101439.09
2023-04-20T20:14:42.698Z,101438.81
2023-04-20T20:17:27.919Z,101431.75
2023-04-20T20:20:15.243Z,101429.84
2023-04-20T20:23:00.665Z,101430.72
2023-04-20T20:25:46.136Z,101427.72
2023-04-20T20:28:31.339Z,101426.03
2023-04-20T20:31:16.733Z,101427.44
2023-04-20T20:34:01.741Z,101428.59
2023-04-20T20:36:48.170Z,101432.66
2023-04-20T20:39:33.234Z,101431.72
2023-04-20T20:42:19.180Z,101434.28
2023-04-20T20:45:12.475Z,101415.66
2023-04-20T20:47:57.784Z,101430.41
2023-04-20T20:50:43.101Z,101433.06
2023-04-20T20:53:28.388Z,101428.59
2023-04-20T20:56:13.751Z,101431.78
2023-04-20T20:58:58.600Z,101423.41
2023-04-20T21:01:43.670Z,101423.34
2023-04-20T21:04:29.917Z,101413.97
2023-04-20T21:07:14.994Z,101429.69
2023-04-20T21:10:00.341Z,101418.41
2023-04-20T21:12:45.203Z,101417.78
2023-04-20T21:15:30.284Z,101394.44
2023-04-20T21:18:15.454Z,101413.19
2023-04-20T21:21:00.756Z,101407.50
2023-04-20T21:23:45.824Z,101418.56
2023-04-20T21:26:35.638Z,101407.13
2023-04-20T21:29:21.045Z,101414.97
2023-04-20T21:32:06.121Z,101404.47
2023-04-20T21:34:52.068Z,101407.22
2023-04-20T21:37:37.645Z,101394.59
2023-04-20T21:40:25.118Z,101413.19
2023-04-20T21:43:10.711Z,101417.50
2023-04-20T21:45:55.880Z,101407.06
2023-04-20T21:48:41.044Z,101399.66
2023-04-20T21:51:25.999Z,101421.16
2023-04-20T21:54:11.914Z,101408.31
2023-04-20T21:56:57.043Z,101402.25
2023-04-20T21:59:42.326Z,101395.38
2023-04-20T22:02:27.362Z,101398.03
2023-04-20T22:05:12.805Z,101387.75
2023-04-20T22:07:58.109Z,101396.91
2023-04-20T22:10:43.369Z,101391.69
2023-04-20T22:13:28.308Z,101393.53
2023-04-20T22:16:13.979Z,101379.63
2023-04-20T22:18:58.851Z,101380.41
2023-04-20T22:21:43.749Z,101377.72
2023-04-20T22:24:28.834Z,101373.28
2023-04-20T22:27:13.809Z,101362.50
2023-04-20T22:29:59.134Z,101359.72
2023-04-20T22:32:44.378Z,101356.38
2023-04-20T22:35:30.071Z,101359.66
2023-04-20T22:38:15.356Z,101355.91
2023-04-20T22:41:00.279Z,101351.53
2023-04-20T22:43:45.511Z,101356.69
2023-04-20T22:46:30.818Z,101340.34
2023-04-20T22:49:15.984Z,101342.25
2023-04-20T22:52:01.427Z,101314.41
2023-04-20T22:54:48.250Z,101325.22
2023-04-20T22:57:33.481Z,101330.13
2023-04-20T23:00:18.600Z,101328.41
2023-04-20T23:03:04.187Z,101331.66
2023-04-20T23:05:49.354Z,101330.66
2023-04-20T23:08:34.524Z,101330.59
2023-04-20T23:11:20.706Z,101310.03
2023-04-20T23:14:06.582Z,101323.53
2023-04-20T23:16:51.781Z,101334.03
2023-04-20T23:19:38.405Z,101321.63
2023-04-20T23:22:23.529Z,101322.13
2023-04-20T23:25:09.894Z,101326.38
2023-04-20T23:27:54.873Z,101314.72
2023-04-20T23:30:39.832Z,101309.50
2023-04-20T23:33:24.994Z,101325.63
2023-04-20T23:36:11.929Z,101318.63
2023-04-20T23:38:56.996Z,101314.09
2023-04-20T23:41:41.936Z,101298.06
2023-04-20T23:44:26.919Z,101265.94
2023-04-20T23:47:11.785Z,101297.66
2023-04-20T23:49:56.811Z,101285.75
2023-04-20T23:52:41.723Z,101262.19
2023-04-20T23:55:26.910Z,101297.97
2023-04-20T23:58:12.127Z,101292.91
